createdAt,value
2022-12-25T00:00:20.921Z,490.00
2022-12-25T00:00:47.674Z,490.00
2022-12-25T00:01:17.663Z,493.00
2022-12-25T00:01:47.742Z,489.00
2022-12-25T00:02:17.962Z,489.00
2022-12-25T00:02:47.914Z,490.00
2022-12-25T00:03:18.047Z,490.00
2022-12-25T00:03:48.140Z,492.00
2022-12-25T00:04:18.061Z,494.00
2022-12-25T00:04:48.147Z,495.00
2022-12-25T00:05:18.215Z,495.00
2022-12-25T00:05:48.292Z,494.00
2022-12-25T00:06:18.381Z,493.00
2022-12-25T00:06:48.474Z,490.00
2022-12-25T00:07:18.530Z,490.00
2022-12-25T00:07:48.618Z,492.00
2022-12-25T00:08:18.709Z,494.00
2022-12-25T00:08:48.793Z,491.00
2022-12-25T00:09:18.878Z,492.00
2022-12-25T00:09:48.942Z,493.00
2022-12-25T00:10:19.040Z,494.00
2022-12-25T00:10:49.134Z,491.00
2022-12-25T00:11:19.210Z,493.00
2022-12-25T00:11:49.283Z,492.00
2022-12-25T00:12:19.370Z,491.00
2022-12-25T00:12:49.456Z,492.00
2022-12-25T00:13:19.550Z,497.00
2022-12-25T00:13:49.575Z,498.00
2022-12-25T00:14:19.612Z,496.00
2022-12-25T00:14:49.652Z,496.00
2022-12-25T00:15:19.717Z,498.00
2022-12-25T00:15:49.790Z,499.00
2022-12-25T00:16:19.935Z,498.00
2022-12-25T00:16:50.023Z,497.00
2022-12-25T00:17:20.077Z,496.00
2022-12-25T00:17:50.121Z,495.00
2022-12-25T00:18:20.160Z,495.00
2022-12-25T00:18:50.210Z,495.00
2022-12-25T00:19:20.234Z,494.00
2022-12-25T00:19:50.289Z,494.00
2022-12-25T00:20:20.344Z,494.00
2022-12-25T00:20:50.383Z,495.00
2022-12-25T00:21:20.415Z,495.00
2022-12-25T00:21:50.461Z,495.00
2022-12-25T00:22:20.508Z,493.00
2022-12-25T00:22:50.561Z,494.00
2022-12-25T00:23:20.581Z,494.00
2022-12-25T00:23:50.663Z,494.00
2022-12-25T00:24:20.753Z,492.00
2022-12-25T00:24:50.831Z,493.00
2022-12-25T00:25:20.946Z,492.00
2022-12-25T00:25:51.040Z,492.00
2022-12-25T00:26:21.107Z,492.00
2022-12-25T00:26:51.200Z,493.00
2022-12-25T00:27:21.274Z,494.00
2022-12-25T00:27:51.358Z,497.00
2022-12-25T00:28:21.484Z,497.00
2022-12-25T00:28:51.545Z,495.00
2022-12-25T00:29:21.638Z,497.00
2022-12-25T00:29:51.704Z,497.00
2022-12-25T00:30:21.812Z,496.00
2022-12-25T00:30:51.888Z,496.00
2022-12-25T00:31:22.036Z,496.00
2022-12-25T00:31:52.177Z,498.00
2022-12-25T00:32:22.194Z,498.00
2022-12-25T00:32:52.256Z,493.00
2022-12-25T00:33:22.340Z,492.00
2022-12-25T00:33:52.445Z,491.00
2022-12-25T00:34:22.502Z,493.00
2022-12-25T00:34:52.589Z,493.00
2022-12-25T00:35:22.688Z,492.00
2022-12-25T00:35:52.768Z,492.00
2022-12-25T00:36:22.924Z,493.00
2022-12-25T00:36:52.886Z,492.00
2022-12-25T00:37:22.966Z,493.00
2022-12-25T00:37:53.049Z,492.00
2022-12-25T00:38:23.125Z,492.00
2022-12-25T00:38:53.220Z,492.00
2022-12-25T00:39:23.297Z,492.00
2022-12-25T00:39:53.386Z,491.00
2022-12-25T00:40:23.469Z,491.00
2022-12-25T00:40:53.562Z,489.00
2022-12-25T00:41:23.660Z,494.00
2022-12-25T00:41:53.660Z,495.00
2022-12-25T00:42:23.755Z,495.00
2022-12-25T00:42:53.829Z,494.00
2022-12-25T00:43:23.919Z,494.00
2022-12-25T00:43:53.982Z,493.00
2022-12-25T00:44:24.059Z,493.00
2022-12-25T00:44:54.149Z,494.00
2022-12-25T00:45:24.292Z,493.00
2022-12-25T00:45:54.276Z,494.00
2022-12-25T00:46:24.449Z,493.00
2022-12-25T00:46:54.429Z,496.00
2022-12-25T00:47:24.519Z,496.00
2022-12-25T00:47:54.474Z,496.00
2022-12-25T00:48:24.557Z,496.00
2022-12-25T00:48:54.730Z,495.00
2022-12-25T00:49:24.686Z,493.00
2022-12-25T00:49:54.767Z,493.00
2022-12-25T00:50:24.852Z,494.00
2022-12-25T00:50:54.978Z,495.00
2022-12-25T00:51:25.033Z,495.00
2022-12-25T00:51:55.115Z,494.00
2022-12-25T00:52:25.194Z,497.00
2022-12-25T00:52:55.296Z,496.00
2022-12-25T00:53:25.365Z,494.00
2022-12-25T00:53:55.449Z,494.00
2022-12-25T00:54:25.540Z,493.00
2022-12-25T00:54:55.619Z,493.00
2022-12-25T00:55:25.726Z,493.00
2022-12-25T00:55:55.698Z,492.00
2022-12-25T00:56:25.775Z,491.00
2022-12-25T00:56:55.856Z,492.00
2022-12-25T00:57:25.945Z,493.00
2022-12-25T00:57:56.039Z,496.00
2022-12-25T00:58:26.138Z,493.00
2022-12-25T00:58:56.209Z,495.00
2022-12-25T00:59:26.268Z,495.00
2022-12-25T00:59:56.361Z,494.00
2022-12-25T01:00:26.451Z,495.00
2022-12-25T01:00:56.583Z,495.00
2022-12-25T01:01:26.709Z,495.00
2022-12-25T01:01:56.714Z,492.00
2022-12-25T01:02:26.843Z,491.00
2022-12-25T01:02:56.758Z,491.00
2022-12-25T01:03:26.849Z,490.00
2022-12-25T01:03:56.754Z,491.00
2022-12-25T01:04:26.830Z,491.00
2022-12-25T01:04:56.994Z,491.00
2022-12-25T01:05:26.982Z,493.00
2022-12-25T01:05:57.067Z,491.00
2022-12-25T01:06:27.147Z,489.00
2022-12-25T01:06:57.237Z,490.00
2022-12-25T01:07:27.326Z,492.00
2022-12-25T01:07:57.399Z,492.00
2022-12-25T01:08:27.480Z,493.00
2022-12-25T01:08:57.560Z,492.00
2022-12-25T01:09:27.656Z,492.00
2022-12-25T01:09:57.742Z,492.00
2022-12-25T01:10:27.821Z,491.00
2022-12-25T01:10:57.901Z,491.00
2022-12-25T01:11:28.001Z,493.00
2022-12-25T01:11:58.086Z,492.00
2022-12-25T01:12:28.162Z,493.00
2022-12-25T01:12:58.243Z,495.00
2022-12-25T01:13:28.355Z,496.00
2022-12-25T01:13:58.366Z,499.00
2022-12-25T01:14:28.405Z,498.00
2022-12-25T01:14:58.438Z,494.00
2022-12-25T01:15:28.487Z,495.00
2022-12-25T01:15:58.575Z,494.00
2022-12-25T01:16:28.747Z,492.00
2022-12-25T01:16:58.715Z,493.00
2022-12-25T01:17:28.730Z,491.00
2022-12-25T01:18:01.608Z,490.00
2022-12-25T01:18:28.799Z,491.00
2022-12-25T01:18:58.835Z,489.00
2022-12-25T01:19:28.882Z,490.00
2022-12-25T01:19:58.934Z,490.00
2022-12-25T01:20:28.949Z,490.00
2022-12-25T01:20:58.990Z,490.00
2022-12-25T01:21:29.025Z,488.00
2022-12-25T01:21:59.070Z,490.00
2022-12-25T01:22:29.107Z,486.00
2022-12-25T01:22:59.132Z,486.00
2022-12-25T01:23:29.190Z,485.00
2022-12-25T01:23:59.272Z,485.00
2022-12-25T01:24:29.356Z,487.00
2022-12-25T01:24:59.438Z,486.00
2022-12-25T01:25:29.526Z,486.00
2022-12-25T01:25:59.598Z,487.00
2022-12-25T01:26:29.596Z,485.00
2022-12-25T01:26:59.678Z,487.00
2022-12-25T01:27:29.769Z,485.00
2022-12-25T01:27:59.850Z,484.00
2022-12-25T01:28:29.920Z,483.00
2022-12-25T01:29:00.034Z,483.00
2022-12-25T01:29:30.118Z,487.00
2022-12-25T01:30:00.242Z,486.00
2022-12-25T01:30:30.189Z,485.00
2022-12-25T01:31:00.268Z,485.00
2022-12-25T01:31:30.342Z,486.00
2022-12-25T01:32:00.470Z,483.00
2022-12-25T01:32:30.351Z,487.00
2022-12-25T01:33:00.435Z,492.00
2022-12-25T01:33:30.501Z,491.00
2022-12-25T01:34:00.590Z,490.00
2022-12-25T01:34:30.675Z,487.00
2022-12-25T01:35:00.760Z,486.00
2022-12-25T01:35:30.890Z,488.00
2022-12-25T01:36:00.891Z,488.00
2022-12-25T01:36:30.970Z,489.00
2022-12-25T01:37:01.095Z,486.00
2022-12-25T01:37:31.155Z,486.00
2022-12-25T01:38:01.226Z,488.00
2022-12-25T01:38:31.304Z,488.00
2022-12-25T01:39:01.393Z,488.00
2022-12-25T01:39:31.477Z,488.00
2022-12-25T01:40:01.569Z,488.00
2022-12-25T01:40:31.643Z,487.00
2022-12-25T01:41:01.720Z,486.00
2022-12-25T01:41:31.807Z,487.00
2022-12-25T01:42:01.891Z,486.00
2022-12-25T01:42:31.980Z,489.00
2022-12-25T01:43:02.053Z,487.00
2022-12-25T01:43:32.137Z,486.00
2022-12-25T01:44:02.255Z,485.00
2022-12-25T01:44:32.311Z,485.00
2022-12-25T01:45:02.393Z,486.00
2022-12-25T01:45:32.509Z,487.00
2022-12-25T01:46:02.489Z,487.00
2022-12-25T01:46:32.552Z,486.00
2022-12-25T01:47:02.617Z,487.00
2022-12-25T01:47:32.701Z,489.00
2022-12-25T01:48:02.781Z,490.00
2022-12-25T01:48:32.893Z,487.00
2022-12-25T01:49:02.941Z,485.00
2022-12-25T01:49:33.033Z,484.00
2022-12-25T01:50:03.134Z,489.00
2022-12-25T01:50:33.194Z,488.00
2022-12-25T01:51:03.268Z,485.00
2022-12-25T01:51:33.363Z,484.00
2022-12-25T01:52:03.456Z,484.00
2022-12-25T01:52:33.524Z,485.00
2022-12-25T01:53:03.600Z,485.00
2022-12-25T01:53:33.691Z,486.00
2022-12-25T01:54:03.767Z,488.00
2022-12-25T01:54:33.858Z,489.00
2022-12-25T01:55:04.053Z,488.00
2022-12-25T01:55:33.936Z,487.00
2022-12-25T01:56:04.019Z,486.00
2022-12-25T01:56:34.106Z,488.00
2022-12-25T01:57:04.185Z,486.00
2022-12-25T01:57:34.271Z,486.00
2022-12-25T01:58:04.352Z,487.00
2022-12-25T01:58:34.435Z,486.00
2022-12-25T01:59:04.537Z,487.00
2022-12-25T01:59:34.630Z,488.00
2022-12-25T02:00:04.696Z,488.00
2022-12-25T02:00:34.772Z,485.00
2022-12-25T02:01:04.947Z,485.00
2022-12-25T02:01:35.026Z,483.00
2022-12-25T02:02:05.075Z,481.00
2022-12-25T02:02:35.173Z,481.00
2022-12-25T02:03:05.178Z,482.00
2022-12-25T02:03:35.152Z,481.00
2022-12-25T02:04:05.237Z,481.00
2022-12-25T02:04:35.326Z,479.00
2022-12-25T02:05:05.418Z,479.00
2022-12-25T02:05:35.544Z,482.00
2022-12-25T02:06:05.513Z,485.00
2022-12-25T02:06:35.596Z,483.00
2022-12-25T02:07:05.684Z,483.00
2022-12-25T02:07:35.758Z,485.00
2022-12-25T02:08:05.853Z,486.00
2022-12-25T02:08:35.938Z,486.00
2022-12-25T02:09:06.015Z,484.00
2022-12-25T02:09:36.088Z,485.00
2022-12-25T02:10:06.175Z,487.00
2022-12-25T02:10:36.267Z,488.00
2022-12-25T02:11:06.337Z,491.00
2022-12-25T02:11:36.419Z,490.00
2022-12-25T02:12:06.496Z,490.00
2022-12-25T02:12:36.582Z,491.00
2022-12-25T02:13:06.664Z,491.00
2022-12-25T02:13:36.725Z,489.00
2022-12-25T02:14:06.783Z,489.00
2022-12-25T02:14:36.804Z,487.00
2022-12-25T02:15:06.829Z,491.00
2022-12-25T02:15:36.886Z,491.00
2022-12-25T02:16:07.028Z,491.00
2022-12-25T02:16:57.599Z,491.00
2022-12-25T02:17:07.114Z,492.00
2022-12-25T02:17:37.066Z,492.00
2022-12-25T02:18:07.096Z,492.00
2022-12-25T02:18:37.132Z,493.00
2022-12-25T02:19:07.194Z,489.00
2022-12-25T02:19:37.210Z,492.00
2022-12-25T02:20:07.238Z,488.00
2022-12-25T02:20:37.300Z,491.00
2022-12-25T02:21:07.331Z,492.00
2022-12-25T02:21:37.377Z,492.00
2022-12-25T02:22:07.413Z,491.00
2022-12-25T02:22:37.435Z,490.00
2022-12-25T02:23:07.462Z,489.00
2022-12-25T02:23:37.535Z,491.00
2022-12-25T02:24:07.634Z,490.00
2022-12-25T02:24:37.714Z,491.00
2022-12-25T02:25:07.795Z,490.00
2022-12-25T02:25:37.886Z,491.00
2022-12-25T02:26:07.975Z,491.00
2022-12-25T02:26:38.057Z,489.00
2022-12-25T02:27:08.149Z,490.00
2022-12-25T02:27:38.257Z,490.00
2022-12-25T02:28:08.239Z,488.00
2022-12-25T02:28:38.330Z,489.00
2022-12-25T02:29:08.417Z,488.00
2022-12-25T02:29:38.555Z,490.00
2022-12-25T02:30:08.544Z,488.00
2022-12-25T02:30:38.506Z,488.00
2022-12-25T02:31:08.596Z,486.00
2022-12-25T02:31:38.755Z,487.00
2022-12-25T02:32:08.770Z,488.00
2022-12-25T02:32:38.741Z,488.00
2022-12-25T02:33:08.820Z,490.00
2022-12-25T02:33:38.904Z,488.00
2022-12-25T02:34:08.985Z,489.00
2022-12-25T02:34:39.089Z,490.00
2022-12-25T02:35:09.069Z,488.00
2022-12-25T02:35:39.208Z,491.00
2022-12-25T02:36:09.275Z,492.00
2022-12-25T02:36:39.359Z,491.00
2022-12-25T02:37:09.428Z,489.00
2022-12-25T02:37:39.519Z,488.00
2022-12-25T02:38:09.609Z,490.00
2022-12-25T02:38:39.692Z,492.00
2022-12-25T02:39:09.791Z,491.00
2022-12-25T02:39:39.885Z,490.00
2022-12-25T02:40:09.973Z,491.00
2022-12-25T02:40:40.061Z,489.00
2022-12-25T02:41:10.142Z,490.00
2022-12-25T02:41:40.217Z,489.00
2022-12-25T02:42:10.309Z,490.00
2022-12-25T02:42:40.392Z,491.00
2022-12-25T02:43:10.478Z,491.00
2022-12-25T02:43:40.559Z,491.00
2022-12-25T02:44:10.643Z,491.00
2022-12-25T02:44:40.727Z,491.00
2022-12-25T02:45:10.843Z,492.00
2022-12-25T02:45:40.933Z,492.00
2022-12-25T02:46:11.068Z,491.00
2022-12-25T02:46:40.942Z,490.00
2022-12-25T02:47:11.017Z,494.00
2022-12-25T02:47:41.109Z,495.00
2022-12-25T02:48:11.197Z,493.00
2022-12-25T02:48:41.269Z,493.00
2022-12-25T02:49:11.352Z,495.00
2022-12-25T02:49:41.442Z,494.00
2022-12-25T02:50:11.535Z,493.00
2022-12-25T02:50:41.655Z,492.00
2022-12-25T02:51:11.703Z,491.00
2022-12-25T02:51:41.790Z,490.00
2022-12-25T02:52:11.865Z,490.00
2022-12-25T02:52:41.957Z,489.00
2022-12-25T02:53:12.044Z,487.00
2022-12-25T02:53:42.126Z,489.00
2022-12-25T02:54:12.236Z,489.00
2022-12-25T02:54:42.198Z,491.00
2022-12-25T02:55:12.295Z,490.00
2022-12-25T02:55:42.386Z,493.00
2022-12-25T02:56:12.464Z,493.00
2022-12-25T02:56:42.544Z,493.00
2022-12-25T02:57:12.639Z,492.00
2022-12-25T02:57:42.710Z,493.00
2022-12-25T02:58:12.800Z,491.00
2022-12-25T02:58:42.877Z,489.00
2022-12-25T02:59:12.961Z,489.00
2022-12-25T02:59:43.047Z,488.00
2022-12-25T03:00:13.171Z,485.00
2022-12-25T03:00:43.221Z,488.00
2022-12-25T03:01:13.342Z,492.00
2022-12-25T03:01:43.414Z,491.00
2022-12-25T03:02:13.451Z,490.00
2022-12-25T03:02:43.451Z,488.00
2022-12-25T03:03:13.586Z,486.00
2022-12-25T03:03:43.700Z,485.00
2022-12-25T03:04:13.636Z,487.00
2022-12-25T03:04:43.734Z,486.00
2022-12-25T03:05:13.825Z,485.00
2022-12-25T03:05:43.910Z,487.00
2022-12-25T03:06:13.977Z,486.00
2022-12-25T03:06:44.154Z,488.00
2022-12-25T03:07:14.249Z,486.00
2022-12-25T03:07:44.185Z,485.00
2022-12-25T03:08:14.273Z,486.00
2022-12-25T03:08:44.340Z,487.00
2022-12-25T03:09:14.432Z,486.00
2022-12-25T03:09:44.516Z,487.00
2022-12-25T03:10:14.633Z,487.00
2022-12-25T03:10:44.696Z,488.00
2022-12-25T03:11:14.763Z,489.00
2022-12-25T03:11:44.854Z,488.00
2022-12-25T03:12:14.930Z,487.00
2022-12-25T03:12:45.024Z,488.00
2022-12-25T03:13:15.103Z,489.00
2022-12-25T03:13:45.130Z,487.00
2022-12-25T03:14:15.183Z,487.00
2022-12-25T03:14:45.216Z,489.00
2022-12-25T03:15:15.270Z,489.00
2022-12-25T03:15:45.325Z,487.00
2022-12-25T03:16:15.417Z,485.00
2022-12-25T03:16:45.437Z,486.00
2022-12-25T03:17:15.388Z,485.00
2022-12-25T03:17:45.434Z,485.00
2022-12-25T03:18:15.475Z,484.00
2022-12-25T03:18:45.493Z,489.00
2022-12-25T03:19:15.532Z,487.00
2022-12-25T03:19:45.581Z,485.00
2022-12-25T03:20:15.610Z,485.00
2022-12-25T03:20:45.657Z,485.00
2022-12-25T03:21:15.693Z,485.00
2022-12-25T03:21:45.729Z,485.00
2022-12-25T03:22:15.782Z,481.00
2022-12-25T03:22:45.805Z,479.00
2022-12-25T03:23:15.861Z,481.00
2022-12-25T03:23:45.927Z,484.00
2022-12-25T03:24:16.003Z,484.00
2022-12-25T03:24:46.092Z,484.00
2022-12-25T03:25:16.190Z,486.00
2022-12-25T03:25:46.271Z,485.00
2022-12-25T03:26:16.351Z,486.00
2022-12-25T03:26:46.443Z,488.00
2022-12-25T03:27:16.531Z,486.00
2022-12-25T03:27:46.615Z,487.00
2022-12-25T03:28:16.694Z,490.00
2022-12-25T03:28:46.787Z,488.00
2022-12-25T03:29:16.870Z,490.00
2022-12-25T03:29:46.954Z,490.00
2022-12-25T03:30:17.056Z,490.00
2022-12-25T03:30:47.168Z,490.00
2022-12-25T03:31:17.386Z,488.00
2022-12-25T03:31:47.195Z,490.00
2022-12-25T03:32:17.271Z,489.00
2022-12-25T03:32:47.354Z,490.00
2022-12-25T03:33:43.904Z,492.00
2022-12-25T03:33:47.497Z,493.00
2022-12-25T03:34:17.583Z,494.00
2022-12-25T03:34:47.662Z,492.00
2022-12-25T03:35:17.900Z,491.00
2022-12-25T03:35:47.751Z,490.00
2022-12-25T03:36:17.843Z,489.00
2022-12-25T03:36:47.930Z,488.00
2022-12-25T03:37:18.010Z,488.00
2022-12-25T03:37:48.094Z,488.00
2022-12-25T03:38:18.186Z,486.00
2022-12-25T03:38:48.271Z,485.00
2022-12-25T03:39:18.371Z,486.00
2022-12-25T03:39:48.345Z,487.00
2022-12-25T03:40:18.438Z,485.00
2022-12-25T03:40:48.519Z,487.00
2022-12-25T03:41:18.643Z,487.00
2022-12-25T03:41:48.685Z,487.00
2022-12-25T03:42:18.793Z,488.00
2022-12-25T03:42:48.870Z,488.00
2022-12-25T03:43:18.952Z,488.00
2022-12-25T03:43:49.035Z,488.00
2022-12-25T03:44:19.115Z,486.00
2022-12-25T03:44:49.214Z,488.00
2022-12-25T03:45:19.306Z,486.00
2022-12-25T03:45:49.415Z,486.00
2022-12-25T03:46:19.641Z,486.00
2022-12-25T03:46:49.499Z,486.00
2022-12-25T03:47:19.597Z,485.00
2022-12-25T03:47:49.654Z,483.00
2022-12-25T03:48:19.736Z,482.00
2022-12-25T03:48:49.820Z,483.00
2022-12-25T03:49:19.893Z,482.00
2022-12-25T03:49:50.010Z,481.00
2022-12-25T03:50:20.097Z,483.00
2022-12-25T03:50:50.176Z,484.00
2022-12-25T03:51:20.259Z,484.00
2022-12-25T03:51:50.340Z,485.00
2022-12-25T03:52:20.437Z,486.00
2022-12-25T03:52:50.523Z,487.00
2022-12-25T03:53:20.589Z,489.00
2022-12-25T03:53:50.667Z,487.00
2022-12-25T03:54:20.763Z,488.00
2022-12-25T03:54:50.843Z,489.00
2022-12-25T03:55:20.921Z,487.00
2022-12-25T03:55:51.000Z,488.00
2022-12-25T03:56:21.085Z,487.00
2022-12-25T03:56:51.171Z,487.00
2022-12-25T03:57:21.273Z,486.00
2022-12-25T03:57:51.334Z,487.00
2022-12-25T03:58:21.412Z,486.00
2022-12-25T03:58:51.502Z,487.00
2022-12-25T03:59:24.113Z,487.00
2022-12-25T03:59:51.642Z,484.00
2022-12-25T04:00:21.707Z,484.00
2022-12-25T04:00:51.805Z,483.00
2022-12-25T04:01:22.032Z,484.00
2022-12-25T04:01:52.063Z,487.00
2022-12-25T04:02:22.162Z,491.00
2022-12-25T04:02:52.166Z,491.00
2022-12-25T04:03:22.196Z,491.00
2022-12-25T04:03:52.240Z,492.00
2022-12-25T04:04:22.195Z,491.00
2022-12-25T04:04:52.276Z,490.00
2022-12-25T04:05:22.379Z,489.00
2022-12-25T04:05:52.445Z,489.00
2022-12-25T04:06:22.530Z,487.00
2022-12-25T04:06:52.608Z,485.00
2022-12-25T04:07:22.706Z,485.00
2022-12-25T04:07:52.781Z,486.00
2022-12-25T04:08:22.870Z,485.00
2022-12-25T04:08:52.962Z,484.00
2022-12-25T04:09:23.037Z,485.00
2022-12-25T04:09:53.127Z,487.00
2022-12-25T04:10:23.168Z,488.00
2022-12-25T04:10:53.245Z,489.00
2022-12-25T04:11:23.331Z,489.00
2022-12-25T04:11:58.784Z,486.00
2022-12-25T04:12:23.494Z,485.00
2022-12-25T04:12:53.569Z,485.00
2022-12-25T04:13:23.635Z,486.00
2022-12-25T04:13:53.686Z,487.00
2022-12-25T04:14:23.736Z,487.00
2022-12-25T04:14:53.766Z,487.00
2022-12-25T04:15:23.830Z,487.00
2022-12-25T04:15:53.891Z,488.00
2022-12-25T04:16:24.084Z,488.00
2022-12-25T04:16:54.073Z,489.00
2022-12-25T04:17:24.080Z,489.00
2022-12-25T04:17:54.116Z,488.00
2022-12-25T04:18:24.167Z,493.00
2022-12-25T04:18:54.190Z,492.00
2022-12-25T04:19:24.238Z,489.00
2022-12-25T04:19:54.269Z,492.00
2022-12-25T04:20:24.314Z,493.00
2022-12-25T04:20:54.351Z,492.00
2022-12-25T04:21:24.401Z,492.00
2022-12-25T04:21:54.450Z,492.00
2022-12-25T04:22:24.488Z,492.00
2022-12-25T04:22:54.512Z,492.00
2022-12-25T04:23:24.566Z,491.00
2022-12-25T04:23:54.657Z,493.00
2022-12-25T04:24:24.742Z,491.00
2022-12-25T04:24:54.827Z,489.00
2022-12-25T04:25:24.913Z,488.00
2022-12-25T04:25:54.987Z,484.00
2022-12-25T04:26:25.073Z,486.00
2022-12-25T04:26:55.165Z,484.00
2022-12-25T04:27:25.245Z,484.00
2022-12-25T04:27:55.320Z,485.00
2022-12-25T04:28:25.399Z,484.00
2022-12-25T04:28:55.485Z,484.00
2022-12-25T04:29:25.577Z,485.00
2022-12-25T04:29:55.670Z,485.00
2022-12-25T04:30:25.732Z,486.00
2022-12-25T04:30:55.873Z,488.00
2022-12-25T04:31:25.935Z,486.00
2022-12-25T04:31:55.884Z,485.00
2022-12-25T04:32:25.983Z,484.00
2022-12-25T04:32:56.035Z,484.00
2022-12-25T04:33:26.128Z,484.00
2022-12-25T04:33:56.207Z,486.00
2022-12-25T04:34:26.293Z,486.00
2022-12-25T04:34:56.368Z,485.00
2022-12-25T04:35:26.448Z,484.00
2022-12-25T04:35:56.548Z,484.00
2022-12-25T04:36:26.641Z,485.00
2022-12-25T04:36:56.724Z,486.00
2022-12-25T04:37:26.801Z,486.00
2022-12-25T04:37:56.883Z,487.00
2022-12-25T04:38:26.975Z,484.00
2022-12-25T04:38:57.104Z,483.00
2022-12-25T04:39:27.159Z,484.00
2022-12-25T04:39:57.238Z,485.00
2022-12-25T04:40:27.326Z,485.00
2022-12-25T04:40:57.417Z,485.00
2022-12-25T04:41:27.495Z,484.00
2022-12-25T04:41:57.572Z,485.00
2022-12-25T04:42:27.660Z,485.00
2022-12-25T04:42:57.793Z,486.00
2022-12-25T04:43:27.742Z,484.00
2022-12-25T04:43:57.828Z,484.00
2022-12-25T04:44:27.910Z,482.00
2022-12-25T04:44:57.989Z,486.00
2022-12-25T04:45:28.073Z,486.00
2022-12-25T04:45:58.241Z,486.00
2022-12-25T04:46:28.255Z,485.00
2022-12-25T04:46:58.225Z,488.00
2022-12-25T04:47:28.329Z,488.00
2022-12-25T04:47:58.392Z,487.00
2022-12-25T04:48:28.497Z,488.00
2022-12-25T04:48:58.580Z,486.00
2022-12-25T04:49:28.660Z,485.00
2022-12-25T04:49:58.733Z,486.00
2022-12-25T04:50:28.828Z,485.00
2022-12-25T04:50:58.916Z,486.00
2022-12-25T04:51:29.000Z,488.00
2022-12-25T04:51:59.082Z,484.00
2022-12-25T04:52:29.209Z,484.00
2022-12-25T04:52:59.283Z,484.00
2022-12-25T04:53:29.348Z,484.00
2022-12-25T04:53:59.428Z,484.00
2022-12-25T04:54:29.517Z,485.00
2022-12-25T04:54:59.616Z,483.00
2022-12-25T04:55:29.686Z,484.00
2022-12-25T04:55:59.770Z,482.00
2022-12-25T04:56:29.852Z,483.00
2022-12-25T04:56:59.953Z,483.00
2022-12-25T04:57:30.026Z,483.00
2022-12-25T04:58:00.099Z,485.00
2022-12-25T04:58:30.199Z,483.00
2022-12-25T04:59:00.309Z,484.00
2022-12-25T04:59:30.404Z,482.00
2022-12-25T05:00:00.466Z,483.00
2022-12-25T05:00:30.545Z,484.00
2022-12-25T05:01:00.638Z,484.00
2022-12-25T05:01:30.869Z,483.00
2022-12-25T05:02:00.890Z,483.00
2022-12-25T05:02:31.008Z,484.00
2022-12-25T05:03:00.956Z,482.00
2022-12-25T05:03:30.982Z,481.00
2022-12-25T05:04:00.956Z,483.00
2022-12-25T05:04:31.053Z,485.00
2022-12-25T05:05:01.126Z,485.00
2022-12-25T05:05:31.221Z,484.00
2022-12-25T05:06:01.302Z,484.00
2022-12-25T05:06:31.389Z,489.00
2022-12-25T05:07:01.455Z,488.00
2022-12-25T05:07:31.535Z,489.00
2022-12-25T05:08:01.619Z,487.00
2022-12-25T05:08:31.705Z,486.00
2022-12-25T05:09:01.796Z,484.00
2022-12-25T05:09:31.876Z,484.00
2022-12-25T05:10:02.072Z,483.00
2022-12-25T05:10:32.015Z,480.00
2022-12-25T05:11:02.110Z,480.00
2022-12-25T05:11:32.193Z,480.00
2022-12-25T05:12:02.268Z,478.00
2022-12-25T05:12:32.358Z,477.00
2022-12-25T05:13:02.447Z,475.00
2022-12-25T05:13:32.501Z,474.00
2022-12-25T05:14:02.575Z,475.00
2022-12-25T05:14:32.631Z,478.00
2022-12-25T05:15:02.681Z,480.00
2022-12-25T05:15:32.711Z,479.00
2022-12-25T05:16:02.833Z,477.00
2022-12-25T05:16:32.921Z,480.00
2022-12-25T05:17:02.956Z,479.00
2022-12-25T05:17:33.020Z,480.00
2022-12-25T05:18:03.030Z,480.00
2022-12-25T05:18:33.081Z,478.00
2022-12-25T05:19:03.125Z,477.00
2022-12-25T05:19:33.150Z,478.00
2022-12-25T05:20:03.194Z,478.00
2022-12-25T05:20:39.565Z,478.00
2022-12-25T05:21:03.266Z,479.00
2022-12-25T05:21:33.306Z,479.00
2022-12-25T05:22:03.343Z,476.00
2022-12-25T05:22:33.367Z,473.00
2022-12-25T05:23:03.418Z,479.00
2022-12-25T05:23:33.471Z,477.00
2022-12-25T05:24:03.555Z,477.00
2022-12-25T05:24:33.653Z,478.00
2022-12-25T05:25:03.744Z,478.00
2022-12-25T05:25:33.825Z,482.00
2022-12-25T05:26:03.904Z,481.00
2022-12-25T05:26:34.012Z,482.00
2022-12-25T05:27:04.094Z,480.00
2022-12-25T05:27:34.164Z,479.00
2022-12-25T05:28:04.253Z,479.00
2022-12-25T05:28:34.337Z,478.00
2022-12-25T05:29:04.415Z,479.00
2022-12-25T05:29:34.499Z,478.00
2022-12-25T05:30:04.580Z,477.00
2022-12-25T05:30:34.666Z,478.00
2022-12-25T05:31:04.772Z,478.00
2022-12-25T05:31:34.850Z,478.00
2022-12-25T05:32:04.737Z,477.00
2022-12-25T05:32:34.823Z,477.00
2022-12-25T05:33:04.933Z,476.00
2022-12-25T05:33:34.986Z,478.00
2022-12-25T05:34:05.067Z,479.00
2022-12-25T05:34:35.161Z,480.00
2022-12-25T05:35:05.251Z,483.00
2022-12-25T05:35:35.336Z,482.00
2022-12-25T05:36:05.417Z,481.00
2022-12-25T05:36:35.552Z,481.00
2022-12-25T05:37:05.503Z,479.00
2022-12-25T05:37:35.580Z,480.00
2022-12-25T05:38:05.668Z,479.00
2022-12-25T05:38:35.748Z,478.00
2022-12-25T05:39:05.832Z,480.00
2022-12-25T05:39:35.939Z,477.00
2022-12-25T05:40:06.001Z,477.00
2022-12-25T05:40:36.081Z,477.00
2022-12-25T05:41:06.192Z,476.00
2022-12-25T05:41:36.275Z,477.00
2022-12-25T05:42:06.351Z,478.00
2022-12-25T05:42:36.423Z,478.00
2022-12-25T05:43:06.524Z,479.00
2022-12-25T05:43:36.601Z,479.00
2022-12-25T05:44:06.676Z,478.00
2022-12-25T05:44:36.755Z,477.00
2022-12-25T05:45:06.850Z,478.00
2022-12-25T05:45:36.934Z,479.00
2022-12-25T05:46:07.089Z,482.00
2022-12-25T05:46:37.121Z,484.00
2022-12-25T05:47:07.132Z,483.00
2022-12-25T05:47:37.081Z,484.00
2022-12-25T05:48:07.173Z,483.00
2022-12-25T05:48:37.267Z,484.00
2022-12-25T05:49:07.325Z,483.00
2022-12-25T05:49:37.417Z,485.00
2022-12-25T05:50:07.491Z,487.00
2022-12-25T05:50:37.569Z,488.00
2022-12-25T05:51:07.669Z,487.00
2022-12-25T05:51:37.761Z,487.00
2022-12-25T05:52:07.853Z,485.00
2022-12-25T05:52:37.927Z,482.00
2022-12-25T05:53:08.909Z,484.00
2022-12-25T05:53:38.040Z,482.00
2022-12-25T05:54:08.129Z,479.00
2022-12-25T05:54:38.221Z,484.00
2022-12-25T05:55:08.296Z,484.00
2022-12-25T05:55:38.373Z,482.00
2022-12-25T05:56:08.453Z,482.00
2022-12-25T05:56:38.546Z,482.00
2022-12-25T05:57:08.633Z,480.00
2022-12-25T05:57:38.715Z,481.00
2022-12-25T05:58:08.793Z,482.00
2022-12-25T05:58:38.894Z,483.00
2022-12-25T05:59:08.973Z,482.00
2022-12-25T05:59:39.072Z,480.00
2022-12-25T06:00:09.136Z,482.00
2022-12-25T06:00:39.222Z,481.00
2022-12-25T06:01:09.310Z,483.00
2022-12-25T06:01:39.639Z,480.00
2022-12-25T06:02:09.486Z,483.00
2022-12-25T06:02:39.651Z,483.00
2022-12-25T06:03:09.562Z,482.00
2022-12-25T06:03:39.645Z,482.00
2022-12-25T06:04:12.675Z,481.00
2022-12-25T06:04:39.650Z,481.00
2022-12-25T06:05:09.734Z,481.00
2022-12-25T06:05:39.848Z,480.00
2022-12-25T06:06:09.833Z,480.00
2022-12-25T06:06:39.918Z,483.00
2022-12-25T06:07:09.994Z,483.00
2022-12-25T06:07:40.066Z,482.00
2022-12-25T06:08:10.152Z,482.00
2022-12-25T06:08:40.241Z,483.00
2022-12-25T06:09:10.323Z,481.00
2022-12-25T06:09:40.405Z,483.00
2022-12-25T06:10:10.490Z,482.00
2022-12-25T06:10:40.571Z,479.00
2022-12-25T06:11:10.680Z,474.00
2022-12-25T06:11:40.735Z,481.00
2022-12-25T06:12:10.825Z,478.00
2022-12-25T06:12:40.899Z,481.00
2022-12-25T06:13:10.983Z,481.00
2022-12-25T06:13:41.038Z,481.00
2022-12-25T06:14:11.120Z,481.00
2022-12-25T06:14:41.140Z,481.00
2022-12-25T06:15:11.206Z,481.00